sensor_id;sensor_type;location;lat;lon;timestamp;P1;durP1;ratioP1;P2;durP2;ratioP2
60076;SDS011;45950;45.208;20.374;2023-04-15T00:01:57;10.00;;;6.43;;
60076;SDS011;45950;45.208;20.374;2023-04-15T00:04:24;8.55;;;5.35;;
60076;SDS011;45950;45.208;20.374;2023-04-15T00:06:51;10.95;;;6.63;;
60076;SDS011;45950;45.208;20.374;2023-04-15T00:09:18;10.82;;;6.72;;
60076;SDS011;45950;45.208;20.374;2023-04-15T00:11:45;11.05;;;6.72;;
60076;SDS011;45950;45.208;20.374;2023-04-15T00:14:15;11.05;;;7.25;;
60076;SDS011;45950;45.208;20.374;2023-04-15T00:16:43;12.80;;;7.43;;
60076;SDS011;45950;45.208;20.374;2023-04-15T00:19:09;14.55;;;8.75;;
60076;SDS011;45950;45.208;20.374;2023-04-15T00:21:42;15.10;;;8.02;;
60076;SDS011;45950;45.208;20.374;2023-04-15T00:24:09;22.05;;;11.30;;
60076;SDS011;45950;45.208;20.374;2023-04-15T00:26:36;21.58;;;11.75;;
60076;SDS011;45950;45.208;20.374;2023-04-15T00:29:02;24.45;;;12.30;;
60076;SDS011;45950;45.208;20.374;2023-04-15T00:31:29;26.42;;;13.10;;
60076;SDS011;45950;45.208;20.374;2023-04-15T00:33:59;26.77;;;15.48;;
60076;SDS011;45950;45.208;20.374;2023-04-15T00:36:26;20.25;;;12.38;;
60076;SDS011;45950;45.208;20.374;2023-04-15T00:38:53;21.38;;;12.43;;
60076;SDS011;45950;45.208;20.374;2023-04-15T00:41:19;18.45;;;11.10;;
60076;SDS011;45950;45.208;20.374;2023-04-15T00:43:47;12.77;;;8.80;;
60076;SDS011;45950;45.208;20.374;2023-04-15T00:46:13;13.50;;;9.10;;
60076;SDS011;45950;45.208;20.374;2023-04-15T00:48:41;14.52;;;9.02;;
60076;SDS011;45950;45.208;20.374;2023-04-15T00:51:11;11.65;;;7.68;;
60076;SDS011;45950;45.208;20.374;2023-04-15T00:53:38;16.33;;;11.02;;
60076;SDS011;45950;45.208;20.374;2023-04-15T00:56:05;45.78;;;27.25;;
60076;SDS011;45950;45.208;20.374;2023-04-15T00:58:32;51.20;;;31.95;;
60076;SDS011;45950;45.208;20.374;2023-04-15T01:00:58;28.25;;;17.63;;
60076;SDS011;45950;45.208;20.374;2023-04-15T01:03:25;20.38;;;13.32;;
60076;SDS011;45950;45.208;20.374;2023-04-15T01:05:52;13.88;;;8.57;;
60076;SDS011;45950;45.208;20.374;2023-04-15T01:08:23;9.50;;;6.82;;
60076;SDS011;45950;45.208;20.374;2023-04-15T01:10:51;8.98;;;5.15;;
60076;SDS011;45950;45.208;20.374;2023-04-15T01:13:19;6.28;;;4.60;;
60076;SDS011;45950;45.208;20.374;2023-04-15T01:15:46;5.78;;;4.75;;
60076;SDS011;45950;45.208;20.374;2023-04-15T01:18:12;8.73;;;5.75;;
60076;SDS011;45950;45.208;20.374;2023-04-15T01:20:40;7.03;;;5.05;;
60076;SDS011;45950;45.208;20.374;2023-04-15T01:23:07;7.30;;;4.50;;
60076;SDS011;45950;45.208;20.374;2023-04-15T01:25:35;6.65;;;4.68;;
60076;SDS011;45950;45.208;20.374;2023-04-15T01:28:02;6.60;;;4.72;;
60076;SDS011;45950;45.208;20.374;2023-04-15T01:30:32;6.03;;;4.07;;
60076;SDS011;45950;45.208;20.374;2023-04-15T01:33:00;7.15;;;4.57;;
60076;SDS011;45950;45.208;20.374;2023-04-15T01:35:26;6.05;;;4.10;;
60076;SDS011;45950;45.208;20.374;2023-04-15T01:37:53;4.78;;;4.07;;
60076;SDS011;45950;45.208;20.374;2023-04-15T01:40:19;18.75;;;6.18;;
60076;SDS011;45950;45.208;20.374;2023-04-15T01:42:48;6.03;;;4.15;;
60076;SDS011;45950;45.208;20.374;2023-04-15T01:45:15;8.68;;;4.95;;
60076;SDS011;45950;45.208;20.374;2023-04-15T01:47:41;15.52;;;5.32;;
60076;SDS011;45950;45.208;20.374;2023-04-15T01:50:08;16.38;;;5.85;;
60076;SDS011;45950;45.208;20.374;2023-04-15T01:52:35;9.65;;;4.93;;
60076;SDS011;45950;45.208;20.374;2023-04-15T01:55:02;11.32;;;5.57;;
60076;SDS011;45950;45.208;20.374;2023-04-15T01:57:29;8.43;;;5.03;;
60076;SDS011;45950;45.208;20.374;2023-04-15T01:59:57;8.93;;;5.22;;
60076;SDS011;45950;45.208;20.374;2023-04-15T02:02:23;7.55;;;5.40;;
60076;SDS011;45950;45.208;20.374;2023-04-15T02:04:50;7.93;;;5.40;;
60076;SDS011;45950;45.208;20.374;2023-04-15T02:07:17;8.90;;;5.47;;
60076;SDS011;45950;45.208;20.374;2023-04-15T02:09:44;7.82;;;5.95;;
60076;SDS011;45950;45.208;20.374;2023-04-15T02:12:11;8.88;;;5.35;;
60076;SDS011;45950;45.208;20.374;2023-04-15T02:14:38;8.82;;;5.80;;
60076;SDS011;45950;45.208;20.374;2023-04-15T02:17:06;9.02;;;5.50;;
60076;SDS011;45950;45.208;20.374;2023-04-15T02:19:33;8.85;;;5.88;;
60076;SDS011;45950;45.208;20.374;2023-04-15T02:21:59;8.82;;;4.85;;
60076;SDS011;45950;45.208;20.374;2023-04-15T02:24:26;7.85;;;4.57;;
60076;SDS011;45950;45.208;20.374;2023-04-15T02:26:53;7.13;;;5.00;;
60076;SDS011;45950;45.208;20.374;2023-04-15T02:29:20;8.38;;;5.82;;
60076;SDS011;45950;45.208;20.374;2023-04-15T02:31:47;9.10;;;5.63;;
60076;SDS011;45950;45.208;20.374;2023-04-15T02:34:15;12.13;;;6.70;;
60076;SDS011;45950;45.208;20.374;2023-04-15T02:36:41;16.75;;;10.10;;
60076;SDS011;45950;45.208;20.374;2023-04-15T02:39:09;16.77;;;10.00;;
60076;SDS011;45950;45.208;20.374;2023-04-15T02:41:36;11.95;;;8.80;;
60076;SDS011;45950;45.208;20.374;2023-04-15T02:44:09;12.45;;;8.32;;
60076;SDS011;45950;45.208;20.374;2023-04-15T02:46:37;9.82;;;6.90;;
60076;SDS011;45950;45.208;20.374;2023-04-15T02:49:05;11.05;;;7.43;;
60076;SDS011;45950;45.208;20.374;2023-04-15T02:51:34;10.18;;;7.38;;
60076;SDS011;45950;45.208;20.374;2023-04-15T02:54:00;9.70;;;6.57;;
60076;SDS011;45950;45.208;20.374;2023-04-15T02:56:27;9.88;;;6.72;;
60076;SDS011;45950;45.208;20.374;2023-04-15T02:58:54;9.63;;;5.85;;
60076;SDS011;45950;45.208;20.374;2023-04-15T03:01:20;8.10;;;5.47;;
60076;SDS011;45950;45.208;20.374;2023-04-15T03:03:47;7.45;;;5.43;;
60076;SDS011;45950;45.208;20.374;2023-04-15T03:06:14;11.90;;;5.70;;
60076;SDS011;45950;45.208;20.374;2023-04-15T03:08:42;6.45;;;5.13;;
60076;SDS011;45950;45.208;20.374;2023-04-15T03:11:08;6.72;;;4.90;;
60076;SDS011;45950;45.208;20.374;2023-04-15T03:13:35;9.00;;;6.25;;
60076;SDS011;45950;45.208;20.374;2023-04-15T03:16:03;6.53;;;4.70;;
60076;SDS011;45950;45.208;20.374;2023-04-15T03:18:30;8.27;;;5.75;;
60076;SDS011;45950;45.208;20.374;2023-04-15T03:20:57;11.25;;;8.13;;
60076;SDS011;45950;45.208;20.374;2023-04-15T03:23:23;12.13;;;9.00;;
60076;SDS011;45950;45.208;20.374;2023-04-15T03:25:51;10.13;;;7.63;;
60076;SDS011;45950;45.208;20.374;2023-04-15T03:28:20;13.45;;;8.30;;
60076;SDS011;45950;45.208;20.374;2023-04-15T03:30:46;11.73;;;8.15;;
60076;SDS011;45950;45.208;20.374;2023-04-15T03:33:13;13.57;;;9.93;;
60076;SDS011;45950;45.208;20.374;2023-04-15T03:35:40;14.18;;;9.45;;
60076;SDS011;45950;45.208;20.374;2023-04-15T03:38:06;11.55;;;8.40;;
60076;SDS011;45950;45.208;20.374;2023-04-15T03:40:33;12.02;;;8.15;;
60076;SDS011;45950;45.208;20.374;2023-04-15T03:43:01;14.80;;;10.15;;
60076;SDS011;45950;45.208;20.374;2023-04-15T03:45:29;12.90;;;9.63;;
60076;SDS011;45950;45.208;20.374;2023-04-15T03:47:56;14.77;;;11.35;;
60076;SDS011;45950;45.208;20.374;2023-04-15T03:50:23;15.40;;;10.30;;
60076;SDS011;45950;45.208;20.374;2023-04-15T03:52:49;13.95;;;10.75;;
60076;SDS011;45950;45.208;20.374;2023-04-15T03:55:16;15.10;;;10.70;;
60076;SDS011;45950;45.208;20.374;2023-04-15T03:57:42;19.58;;;13.43;;
60076;SDS011;45950;45.208;20.374;2023-04-15T04:00:11;19.50;;;13.02;;
60076;SDS011;45950;45.208;20.374;2023-04-15T04:02:38;23.00;;;15.02;;
60076;SDS011;45950;45.208;20.374;2023-04-15T04:05:04;23.80;;;15.85;;
60076;SDS011;45950;45.208;20.374;2023-04-15T04:07:31;23.95;;;17.23;;
60076;SDS011;45950;45.208;20.374;2023-04-15T04:09:57;22.88;;;16.55;;
60076;SDS011;45950;45.208;20.374;2023-04-15T04:12:24;25.85;;;18.02;;
60076;SDS011;45950;45.208;20.374;2023-04-15T04:14:51;29.25;;;20.27;;
60076;SDS011;45950;45.208;20.374;2023-04-15T04:17:19;34.08;;;22.05;;
60076;SDS011;45950;45.208;20.374;2023-04-15T04:19:45;33.47;;;20.25;;
60076;SDS011;45950;45.208;20.374;2023-04-15T04:22:13;32.47;;;21.80;;
60076;SDS011;45950;45.208;20.374;2023-04-15T04:24:40;32.78;;;21.52;;
60076;SDS011;45950;45.208;20.374;2023-04-15T04:27:06;32.35;;;19.52;;
60076;SDS011;45950;45.208;20.374;2023-04-15T04:29:33;26.63;;;17.83;;
60076;SDS011;45950;45.208;20.374;2023-04-15T04:32:00;29.45;;;18.70;;
60076;SDS011;45950;45.208;20.374;2023-04-15T04:34:28;25.77;;;18.13;;
60076;SDS011;45950;45.208;20.374;2023-04-15T04:36:54;31.63;;;20.00;;
60076;SDS011;45950;45.208;20.374;2023-04-15T04:39:21;31.67;;;22.08;;
60076;SDS011;45950;45.208;20.374;2023-04-15T04:41:48;32.67;;;21.58;;
60076;SDS011;45950;45.208;20.374;2023-04-15T04:44:16;40.47;;;27.95;;
60076;SDS011;45950;45.208;20.374;2023-04-15T04:46:42;35.17;;;23.02;;
60076;SDS011;45950;45.208;20.374;2023-04-15T04:49:09;30.00;;;18.90;;
60076;SDS011;45950;45.208;20.374;2023-04-15T04:51:37;31.67;;;19.20;;
60076;SDS011;45950;45.208;20.374;2023-04-15T04:54:04;48.30;;;30.98;;
60076;SDS011;45950;45.208;20.374;2023-04-15T04:56:30;30.88;;;18.80;;
60076;SDS011;45950;45.208;20.374;2023-04-15T04:58:58;29.85;;;20.30;;
60076;SDS011;45950;45.208;20.374;2023-04-15T05:01:25;27.73;;;20.05;;
60076;SDS011;45950;45.208;20.374;2023-04-15T05:03:52;29.42;;;18.90;;
60076;SDS011;45950;45.208;20.374;2023-04-15T05:06:18;25.60;;;19.30;;
60076;SDS011;45950;45.208;20.374;2023-04-15T05:08:46;27.77;;;19.15;;
60076;SDS011;45950;45.208;20.374;2023-04-15T05:11:13;27.02;;;16.90;;
60076;SDS011;45950;45.208;20.374;2023-04-15T05:13:39;26.83;;;17.17;;
60076;SDS011;45950;45.208;20.374;2023-04-15T05:16:06;25.10;;;16.83;;
60076;SDS011;45950;45.208;20.374;2023-04-15T05:18:33;23.40;;;16.33;;
60076;SDS011;45950;45.208;20.374;2023-04-15T05:21:02;24.67;;;16.67;;
60076;SDS011;45950;45.208;20.374;2023-04-15T05:23:29;25.88;;;17.30;;
60076;SDS011;45950;45.208;20.374;2023-04-15T05:25:57;27.77;;;17.75;;
60076;SDS011;45950;45.208;20.374;2023-04-15T05:28:26;24.67;;;16.58;;
60076;SDS011;45950;45.208;20.374;2023-04-15T05:30:52;34.90;;;21.70;;
60076;SDS011;45950;45.208;20.374;2023-04-15T05:33:19;26.13;;;17.27;;
60076;SDS011;45950;45.208;20.374;2023-04-15T05:35:46;27.25;;;18.13;;
60076;SDS011;45950;45.208;20.374;2023-04-15T05:38:12;24.05;;;17.23;;
60076;SDS011;45950;45.208;20.374;2023-04-15T05:40:39;22.42;;;15.98;;
60076;SDS011;45950;45.208;20.374;2023-04-15T05:43:07;26.67;;;17.17;;
60076;SDS011;45950;45.208;20.374;2023-04-15T05:45:33;39.17;;;27.70;;
60076;SDS011;45950;45.208;20.374;2023-04-15T05:48:00;27.63;;;18.70;;
60076;SDS011;45950;45.208;20.374;2023-04-15T05:50:39;26.92;;;17.95;;
60076;SDS011;45950;45.208;20.374;2023-04-15T05:53:06;30.20;;;18.85;;
60076;SDS011;45950;45.208;20.374;2023-04-15T05:55:33;25.90;;;16.25;;
60076;SDS011;45950;45.208;20.374;2023-04-15T05:58:00;19.77;;;13.70;;
60076;SDS011;45950;45.208;20.374;2023-04-15T06:00:28;19.30;;;14.90;;
60076;SDS011;45950;45.208;20.374;2023-04-15T06:02:55;16.58;;;12.30;;
60076;SDS011;45950;45.208;20.374;2023-04-15T06:05:22;19.05;;;13.25;;
60076;SDS011;45950;45.208;20.374;2023-04-15T06:07:48;18.67;;;13.88;;
60076;SDS011;45950;45.208;20.374;2023-04-15T06:10:15;14.30;;;9.73;;
60076;SDS011;45950;45.208;20.374;2023-04-15T06:12:42;16.92;;;11.02;;
60076;SDS011;45950;45.208;20.374;2023-04-15T06:15:09;13.52;;;9.02;;
60076;SDS011;45950;45.208;20.374;2023-04-15T06:17:37;12.75;;;8.57;;
60076;SDS011;45950;45.208;20.374;2023-04-15T06:20:03;14.77;;;8.98;;
60076;SDS011;45950;45.208;20.374;2023-04-15T06:22:30;11.07;;;7.20;;
60076;SDS011;45950;45.208;20.374;2023-04-15T06:24:57;12.85;;;7.60;;
60076;SDS011;45950;45.208;20.374;2023-04-15T06:27:23;14.43;;;7.75;;
60076;SDS011;45950;45.208;20.374;2023-04-15T06:29:50;10.13;;;7.43;;
60076;SDS011;45950;45.208;20.374;2023-04-15T06:32:16;10.65;;;6.78;;
60076;SDS011;45950;45.208;20.374;2023-04-15T06:34:44;9.18;;;5.88;;
60076;SDS011;45950;45.208;20.374;2023-04-15T06:37:11;11.38;;;6.20;;
60076;SDS011;45950;45.208;20.374;2023-04-15T06:39:40;10.35;;;5.97;;
60076;SDS011;45950;45.208;20.374;2023-04-15T06:42:07;9.23;;;5.07;;
60076;SDS011;45950;45.208;20.374;2023-04-15T06:44:33;9.43;;;5.60;;
60076;SDS011;45950;45.208;20.374;2023-04-15T06:47:01;9.75;;;5.30;;
60076;SDS011;45950;45.208;20.374;2023-04-15T06:49:27;8.43;;;4.28;;
60076;SDS011;45950;45.208;20.374;2023-04-15T06:51:55;7.97;;;4.72;;
60076;SDS011;45950;45.208;20.374;2023-04-15T06:54:22;7.75;;;4.97;;
60076;SDS011;45950;45.208;20.374;2023-04-15T06:56:49;7.22;;;4.43;;
60076;SDS011;45950;45.208;20.374;2023-04-15T06:59:15;8.57;;;4.82;;
60076;SDS011;45950;45.208;20.374;2023-04-15T07:01:42;8.02;;;5.10;;
60076;SDS011;45950;45.208;20.374;2023-04-15T07:04:08;9.27;;;5.43;;
60076;SDS011;45950;45.208;20.374;2023-04-15T07:06:35;7.28;;;4.25;;
60076;SDS011;45950;45.208;20.374;2023-04-15T07:09:03;7.47;;;4.72;;
60076;SDS011;45950;45.208;20.374;2023-04-15T07:11:30;14.15;;;8.73;;
60076;SDS011;45950;45.208;20.374;2023-04-15T07:13:56;8.80;;;5.80;;
60076;SDS011;45950;45.208;20.374;2023-04-15T07:16:23;5.10;;;3.28;;
60076;SDS011;45950;45.208;20.374;2023-04-15T07:18:50;4.35;;;2.67;;
60076;SDS011;45950;45.208;20.374;2023-04-15T07:21:16;6.65;;;4.05;;
60076;SDS011;45950;45.208;20.374;2023-04-15T07:23:45;9.63;;;5.30;;
60076;SDS011;45950;45.208;20.374;2023-04-15T07:26:13;6.63;;;3.03;;
60076;SDS011;45950;45.208;20.374;2023-04-15T07:28:39;4.68;;;2.10;;
60076;SDS011;45950;45.208;20.374;2023-04-15T07:31:06;4.68;;;2.22;;
60076;SDS011;45950;45.208;20.374;2023-04-15T07:33:33;5.25;;;2.60;;
60076;SDS011;45950;45.208;20.374;2023-04-15T07:35:59;5.80;;;1.98;;
60076;SDS011;45950;45.208;20.374;2023-04-15T07:38:26;5.07;;;2.70;;
60076;SDS011;45950;45.208;20.374;2023-04-15T07:40:54;5.68;;;3.10;;
60076;SDS011;45950;45.208;20.374;2023-04-15T07:43:22;14.98;;;8.63;;
60076;SDS011;45950;45.208;20.374;2023-04-15T07:45:48;12.50;;;6.45;;
60076;SDS011;45950;45.208;20.374;2023-04-15T07:48:15;5.30;;;2.00;;
60076;SDS011;45950;45.208;20.374;2023-04-15T07:50:42;7.28;;;4.05;;
60076;SDS011;45950;45.208;20.374;2023-04-15T07:53:08;8.68;;;3.17;;
60076;SDS011;45950;45.208;20.374;2023-04-15T07:55:35;4.43;;;2.95;;
60076;SDS011;45950;45.208;20.374;2023-04-15T07:58:01;5.18;;;2.42;;
60076;SDS011;45950;45.208;20.374;2023-04-15T08:00:29;6.32;;;2.35;;
60076;SDS011;45950;45.208;20.374;2023-04-15T08:02:56;7.35;;;5.22;;
60076;SDS011;45950;45.208;20.374;2023-04-15T08:05:23;4.57;;;1.48;;
60076;SDS011;45950;45.208;20.374;2023-04-15T08:07:50;2.65;;;1.50;;
60076;SDS011;45950;45.208;20.374;2023-04-15T08:10:17;4.57;;;1.30;;
60076;SDS011;45950;45.208;20.374;2023-04-15T08:12:43;4.50;;;2.10;;
60076;SDS011;45950;45.208;20.374;2023-04-15T08:15:13;4.47;;;2.17;;
60076;SDS011;45950;45.208;20.374;2023-04-15T08:17:41;6.82;;;2.60;;
60076;SDS011;45950;45.208;20.374;2023-04-15T08:20:07;6.63;;;1.80;;
60076;SDS011;45950;45.208;20.374;2023-04-15T08:22:34;3.85;;;1.83;;
60076;SDS011;45950;45.208;20.374;2023-04-15T08:25:01;3.53;;;1.83;;
60076;SDS011;45950;45.208;20.374;2023-04-15T08:27:27;3.00;;;1.45;;
60076;SDS011;45950;45.208;20.374;2023-04-15T08:29:54;3.83;;;2.13;;
60076;SDS011;45950;45.208;20.374;2023-04-15T08:32:20;4.40;;;1.90;;
60076;SDS011;45950;45.208;20.374;2023-04-15T08:34:49;3.10;;;2.17;;
60076;SDS011;45950;45.208;20.374;2023-04-15T08:37:16;3.80;;;2.25;;
60076;SDS011;45950;45.208;20.374;2023-04-15T08:39:43;3.65;;;2.40;;
60076;SDS011;45950;45.208;20.374;2023-04-15T08:42:10;3.30;;;1.90;;
60076;SDS011;45950;45.208;20.374;2023-04-15T08:44:37;3.15;;;1.90;;
60076;SDS011;45950;45.208;20.374;2023-04-15T08:47:06;3.95;;;1.60;;
60076;SDS011;45950;45.208;20.374;2023-04-15T08:49:33;3.70;;;1.58;;
60076;SDS011;45950;45.208;20.374;2023-04-15T08:52:02;2.78;;;1.42;;
60076;SDS011;45950;45.208;20.374;2023-04-15T08:54:29;4.32;;;2.08;;
60076;SDS011;45950;45.208;20.374;2023-04-15T08:56:56;4.05;;;1.70;;
60076;SDS011;45950;45.208;20.374;2023-04-15T08:59:23;4.43;;;1.60;;
60076;SDS011;45950;45.208;20.374;2023-04-15T09:01:54;2.75;;;1.27;;
60076;SDS011;45950;45.208;20.374;2023-04-15T09:04:21;3.00;;;1.30;;
60076;SDS011;45950;45.208;20.374;2023-04-15T09:06:47;2.83;;;1.33;;
60076;SDS011;45950;45.208;20.374;2023-04-15T09:09:15;4.57;;;1.70;;
60076;SDS011;45950;45.208;20.374;2023-04-15T09:11:42;1.60;;;0.90;;
60076;SDS011;45950;45.208;20.374;2023-04-15T09:14:08;2.92;;;1.30;;
60076;SDS011;45950;45.208;20.374;2023-04-15T09:19:21;4.30;;;2.42;;
60076;SDS011;45950;45.208;20.374;2023-04-15T09:21:48;3.63;;;1.92;;
60076;SDS011;45950;45.208;20.374;2023-04-15T09:24:17;2.58;;;1.33;;
60076;SDS011;45950;45.208;20.374;2023-04-15T09:26:44;3.53;;;1.17;;
60076;SDS011;45950;45.208;20.374;2023-04-15T09:29:12;4.72;;;1.40;;
60076;SDS011;45950;45.208;20.374;2023-04-15T09:31:39;2.92;;;1.10;;
60076;SDS011;45950;45.208;20.374;2023-04-15T09:34:06;2.92;;;1.20;;
60076;SDS011;45950;45.208;20.374;2023-04-15T09:36:51;4.90;;;1.58;;
60076;SDS011;45950;45.208;20.374;2023-04-15T09:39:19;4.85;;;2.63;;
60076;SDS011;45950;45.208;20.374;2023-04-15T09:41:46;3.15;;;1.77;;
60076;SDS011;45950;45.208;20.374;2023-04-15T09:44:22;3.42;;;2.03;;
60076;SDS011;45950;45.208;20.374;2023-04-15T09:46:48;1.90;;;1.25;;
60076;SDS011;45950;45.208;20.374;2023-04-15T09:49:15;2.35;;;1.30;;
60076;SDS011;45950;45.208;20.374;2023-04-15T09:51:42;2.92;;;1.08;;
60076;SDS011;45950;45.208;20.374;2023-04-15T09:54:09;2.58;;;1.05;;
60076;SDS011;45950;45.208;20.374;2023-04-15T09:56:37;2.35;;;1.13;;
60076;SDS011;45950;45.208;20.374;2023-04-15T09:59:06;2.60;;;1.00;;
60076;SDS011;45950;45.208;20.374;2023-04-15T10:01:33;3.45;;;0.98;;
60076;SDS011;45950;45.208;20.374;2023-04-15T10:04:00;1.60;;;1.00;;
60076;SDS011;45950;45.208;20.374;2023-04-15T10:06:28;3.83;;;1.35;;
60076;SDS011;45950;45.208;20.374;2023-04-15T10:08:55;2.60;;;1.58;;
60076;SDS011;45950;45.208;20.374;2023-04-15T10:11:25;6.65;;;2.90;;
60076;SDS011;45950;45.208;20.374;2023-04-15T10:13:55;4.95;;;3.13;;
60076;SDS011;45950;45.208;20.374;2023-04-15T10:16:22;3.15;;;1.65;;
60076;SDS011;45950;45.208;20.374;2023-04-15T10:18:53;2.65;;;1.38;;
60076;SDS011;45950;45.208;20.374;2023-04-15T10:21:20;6.65;;;2.95;;
60076;SDS011;45950;45.208;20.374;2023-04-15T10:23:48;2.60;;;1.40;;
60076;SDS011;45950;45.208;20.374;2023-04-15T10:26:14;4.55;;;2.50;;
60076;SDS011;45950;45.208;20.374;2023-04-15T10:28:41;3.13;;;1.70;;
60076;SDS011;45950;45.208;20.374;2023-04-15T10:31:09;4.32;;;2.35;;
60076;SDS011;45950;45.208;20.374;2023-04-15T10:33:37;3.88;;;1.70;;
60076;SDS011;45950;45.208;20.374;2023-04-15T10:36:04;3.55;;;1.40;;
60076;SDS011;45950;45.208;20.374;2023-04-15T10:38:35;5.80;;;2.28;;
60076;SDS011;45950;45.208;20.374;2023-04-15T10:41:15;2.50;;;1.60;;
60076;SDS011;45950;45.208;20.374;2023-04-15T10:43:49;2.05;;;1.20;;
60076;SDS011;45950;45.208;20.374;2023-04-15T10:46:18;3.85;;;2.00;;
60076;SDS011;45950;45.208;20.374;2023-04-15T10:48:46;6.13;;;2.58;;
60076;SDS011;45950;45.208;20.374;2023-04-15T10:51:25;8.07;;;3.47;;
60076;SDS011;45950;45.208;20.374;2023-04-15T10:53:55;6.97;;;2.55;;
60076;SDS011;45950;45.208;20.374;2023-04-15T10:56:21;3.90;;;2.25;;
60076;SDS011;45950;45.208;20.374;2023-04-15T10:58:48;5.40;;;2.97;;
60076;SDS011;45950;45.208;20.374;2023-04-15T11:01:15;1.70;;;1.10;;
60076;SDS011;45950;45.208;20.374;2023-04-15T11:03:43;2.63;;;1.30;;
60076;SDS011;45950;45.208;20.374;2023-04-15T11:06:10;2.72;;;1.42;;
60076;SDS011;45950;45.208;20.374;2023-04-15T11:08:53;3.60;;;1.63;;
60076;SDS011;45950;45.208;20.374;2023-04-15T11:11:20;8.70;;;4.10;;
60076;SDS011;45950;45.208;20.374;2023-04-15T11:13:47;2.15;;;1.17;;
60076;SDS011;45950;45.208;20.374;2023-04-15T11:16:13;5.43;;;3.22;;
60076;SDS011;45950;45.208;20.374;2023-04-15T11:18:53;3.75;;;2.10;;
60076;SDS011;45950;45.208;20.374;2023-04-15T11:21:22;6.28;;;1.65;;
60076;SDS011;45950;45.208;20.374;2023-04-15T11:23:49;2.63;;;1.23;;
60076;SDS011;45950;45.208;20.374;2023-04-15T11:26:16;1.63;;;1.00;;
60076;SDS011;45950;45.208;20.374;2023-04-15T11:28:44;2.95;;;1.25;;
60076;SDS011;45950;45.208;20.374;2023-04-15T11:31:11;2.20;;;1.30;;
60076;SDS011;45950;45.208;20.374;2023-04-15T11:33:43;2.15;;;1.33;;
60076;SDS011;45950;45.208;20.374;2023-04-15T11:36:11;2.92;;;1.30;;
60076;SDS011;45950;45.208;20.374;2023-04-15T11:38:41;35.70;;;21.33;;
60076;SDS011;45950;45.208;20.374;2023-04-15T11:41:08;17.05;;;11.15;;
60076;SDS011;45950;45.208;20.374;2023-04-15T11:43:34;17.83;;;13.63;;
60076;SDS011;45950;45.208;20.374;2023-04-15T11:46:01;5.07;;;3.55;;
60076;SDS011;45950;45.208;20.374;2023-04-15T11:48:28;3.60;;;2.08;;
60076;SDS011;45950;45.208;20.374;2023-04-15T11:50:58;3.17;;;1.40;;
60076;SDS011;45950;45.208;20.374;2023-04-15T11:53:35;2.80;;;2.15;;
60076;SDS011;45950;45.208;20.374;2023-04-15T11:56:02;10.75;;;7.03;;
60076;SDS011;45950;45.208;20.374;2023-04-15T11:58:30;5.75;;;4.32;;
60076;SDS011;45950;45.208;20.374;2023-04-15T12:00:57;2.67;;;1.60;;
60076;SDS011;45950;45.208;20.374;2023-04-15T12:03:25;1.90;;;1.08;;
60076;SDS011;45950;45.208;20.374;2023-04-15T12:06:08;1.65;;;1.00;;
60076;SDS011;45950;45.208;20.374;2023-04-15T12:11:26;1.80;;;0.90;;
60076;SDS011;45950;45.208;20.374;2023-04-15T12:13:56;1.75;;;1.00;;
60076;SDS011;45950;45.208;20.374;2023-04-15T12:16:22;2.50;;;0.90;;
60076;SDS011;45950;45.208;20.374;2023-04-15T12:18:50;1.88;;;0.90;;
60076;SDS011;45950;45.208;20.374;2023-04-15T12:21:17;1.63;;;0.95;;
60076;SDS011;45950;45.208;20.374;2023-04-15T12:23:49;1.67;;;1.00;;
60076;SDS011;45950;45.208;20.374;2023-04-15T12:26:16;1.60;;;1.00;;
60076;SDS011;45950;45.208;20.374;2023-04-15T12:28:44;2.45;;;1.13;;
60076;SDS011;45950;45.208;20.374;2023-04-15T12:31:11;2.35;;;1.00;;
60076;SDS011;45950;45.208;20.374;2023-04-15T12:33:38;1.42;;;0.88;;
60076;SDS011;45950;45.208;20.374;2023-04-15T12:36:05;2.45;;;0.93;;
60076;SDS011;45950;45.208;20.374;2023-04-15T12:38:32;1.30;;;0.90;;
60076;SDS011;45950;45.208;20.374;2023-04-15T12:41:00;1.25;;;0.93;;
60076;SDS011;45950;45.208;20.374;2023-04-15T12:43:26;3.03;;;0.98;;
60076;SDS011;45950;45.208;20.374;2023-04-15T12:45:56;1.63;;;0.90;;
60076;SDS011;45950;45.208;20.374;2023-04-15T12:48:23;3.10;;;1.00;;
60076;SDS011;45950;45.208;20.374;2023-04-15T12:50:49;1.58;;;0.90;;
60076;SDS011;45950;45.208;20.374;2023-04-15T12:53:16;3.65;;;1.38;;
60076;SDS011;45950;45.208;20.374;2023-04-15T12:55:43;1.58;;;1.00;;
60076;SDS011;45950;45.208;20.374;2023-04-15T12:58:09;1.48;;;0.90;;
60076;SDS011;45950;45.208;20.374;2023-04-15T13:00:37;1.95;;;1.08;;
60076;SDS011;45950;45.208;20.374;2023-04-15T13:03:05;1.30;;;0.82;;
60076;SDS011;45950;45.208;20.374;2023-04-15T13:05:31;1.52;;;1.13;;
60076;SDS011;45950;45.208;20.374;2023-04-15T13:07:58;1.95;;;1.00;;
60076;SDS011;45950;45.208;20.374;2023-04-15T13:10:25;6.20;;;2.10;;
60076;SDS011;45950;45.208;20.374;2023-04-15T13:12:52;4.43;;;2.38;;
60076;SDS011;45950;45.208;20.374;2023-04-15T13:15:20;2.22;;;1.27;;
60076;SDS011;45950;45.208;20.374;2023-04-15T13:17:47;2.30;;;1.23;;
60076;SDS011;45950;45.208;20.374;2023-04-15T13:20:15;6.78;;;3.58;;
60076;SDS011;45950;45.208;20.374;2023-04-15T13:22:42;15.23;;;7.28;;
60076;SDS011;45950;45.208;20.374;2023-04-15T13:25:08;5.03;;;3.10;;
60076;SDS011;45950;45.208;20.374;2023-04-15T13:27:36;10.02;;;5.95;;
60076;SDS011;45950;45.208;20.374;2023-04-15T13:30:03;8.80;;;5.43;;
60076;SDS011;45950;45.208;20.374;2023-04-15T13:32:30;4.93;;;1.65;;
60076;SDS011;45950;45.208;20.374;2023-04-15T13:34:57;6.75;;;4.40;;
60076;SDS011;45950;45.208;20.374;2023-04-15T13:37:26;4.90;;;4.00;;
60076;SDS011;45950;45.208;20.374;2023-04-15T13:39:53;4.95;;;3.30;;
60076;SDS011;45950;45.208;20.374;2023-04-15T13:42:20;3.88;;;2.60;;
60076;SDS011;45950;45.208;20.374;2023-04-15T13:44:46;3.30;;;2.03;;
60076;SDS011;45950;45.208;20.374;2023-04-15T13:47:13;4.55;;;2.35;;
60076;SDS011;45950;45.208;20.374;2023-04-15T13:49:40;6.80;;;3.63;;
60076;SDS011;45950;45.208;20.374;2023-04-15T13:52:06;9.15;;;5.13;;
60076;SDS011;45950;45.208;20.374;2023-04-15T13:54:34;12.02;;;8.45;;
60076;SDS011;45950;45.208;20.374;2023-04-15T13:57:01;2.10;;;1.27;;
60076;SDS011;45950;45.208;20.374;2023-04-15T13:59:28;26.48;;;17.65;;
60076;SDS011;45950;45.208;20.374;2023-04-15T14:01:54;32.75;;;19.35;;
60076;SDS011;45950;45.208;20.374;2023-04-15T14:04:21;53.67;;;32.10;;
60076;SDS011;45950;45.208;20.374;2023-04-15T14:06:48;8.38;;;6.00;;
60076;SDS011;45950;45.208;20.374;2023-04-15T14:09:15;18.05;;;14.52;;
60076;SDS011;45950;45.208;20.374;2023-04-15T14:11:43;23.05;;;18.55;;
60076;SDS011;45950;45.208;20.374;2023-04-15T14:14:10;10.00;;;9.00;;
60076;SDS011;45950;45.208;20.374;2023-04-15T14:16:36;2.83;;;1.90;;
60076;SDS011;45950;45.208;20.374;2023-04-15T14:19:03;2.47;;;1.35;;
60076;SDS011;45950;45.208;20.374;2023-04-15T14:21:30;3.63;;;1.00;;
60076;SDS011;45950;45.208;20.374;2023-04-15T14:23:57;2.30;;;1.20;;
60076;SDS011;45950;45.208;20.374;2023-04-15T14:26:24;3.50;;;1.00;;
60076;SDS011;45950;45.208;20.374;2023-04-15T14:28:52;1.67;;;0.90;;
60076;SDS011;45950;45.208;20.374;2023-04-15T14:31:19;1.60;;;1.08;;
60076;SDS011;45950;45.208;20.374;2023-04-15T14:33:47;1.42;;;0.90;;